sensor_id;sensor_type;location;lat;lon;timestamp;temperature;humidity
42979;DHT22;28616;44.746;19.678;2023-08-07T00:00:47;16.00;99.90
42979;DHT22;28616;44.746;19.678;2023-08-07T00:03:12;16.00;99.90
42979;DHT22;28616;44.746;19.678;2023-08-07T00:05:45;16.00;99.90
42979;DHT22;28616;44.746;19.678;2023-08-07T00:08:11;16.00;99.90
42979;DHT22;28616;44.746;19.678;2023-08-07T00:10:37;16.00;99.90
42979;DHT22;28616;44.746;19.678;2023-08-07T00:13:03;16.00;99.90
42979;DHT22;28616;44.746;19.678;2023-08-07T00:15:29;16.00;99.90
42979;DHT22;28616;44.746;19.678;2023-08-07T00:17:55;16.00;99.90
42979;DHT22;28616;44.746;19.678;2023-08-07T00:20:21;16.00;99.90
42979;DHT22;28616;44.746;19.678;2023-08-07T00:22:46;16.00;99.90
42979;DHT22;28616;44.746;19.678;2023-08-07T00:25:12;16.00;99.90
42979;DHT22;28616;44.746;19.678;2023-08-07T00:27:38;16.00;99.90
42979;DHT22;28616;44.746;19.678;2023-08-07T00:30:04;15.90;99.90
42979;DHT22;28616;44.746;19.678;2023-08-07T00:32:30;15.90;99.90
42979;DHT22;28616;44.746;19.678;2023-08-07T00:34:56;16.00;99.90
42979;DHT22;28616;44.746;19.678;2023-08-07T00:37:21;15.90;99.90
42979;DHT22;28616;44.746;19.678;2023-08-07T00:39:47;15.90;99.90
42979;DHT22;28616;44.746;19.678;2023-08-07T00:42:13;15.90;99.90
42979;DHT22;28616;44.746;19.678;2023-08-07T00:44:39;15.90;99.90
42979;DHT22;28616;44.746;19.678;2023-08-07T00:47:06;15.90;99.90
42979;DHT22;28616;44.746;19.678;2023-08-07T00:49:32;15.90;99.90
42979;DHT22;28616;44.746;19.678;2023-08-07T00:51:58;15.90;99.90
42979;DHT22;28616;44.746;19.678;2023-08-07T00:54:24;15.90;99.90
42979;DHT22;28616;44.746;19.678;2023-08-07T00:56:50;15.90;99.90
42979;DHT22;28616;44.746;19.678;2023-08-07T00:59:16;15.90;99.90
42979;DHT22;28616;44.746;19.678;2023-08-07T01:01:43;15.90;99.90
42979;DHT22;28616;44.746;19.678;2023-08-07T01:04:09;16.00;99.90
42979;DHT22;28616;44.746;19.678;2023-08-07T01:06:34;16.00;99.90
42979;DHT22;28616;44.746;19.678;2023-08-07T01:09:00;15.90;99.90
42979;DHT22;28616;44.746;19.678;2023-08-07T01:14:40;15.80;99.90
42979;DHT22;28616;44.746;19.678;2023-08-07T01:17:11;15.70;99.90
42979;DHT22;28616;44.746;19.678;2023-08-07T01:19:39;15.70;99.90
42979;DHT22;28616;44.746;19.678;2023-08-07T01:22:09;15.70;99.90
42979;DHT22;28616;44.746;19.678;2023-08-07T01:24:35;15.60;99.90
42979;DHT22;28616;44.746;19.678;2023-08-07T01:27:24;15.60;99.90
42979;DHT22;28616;44.746;19.678;2023-08-07T01:30:17;15.50;99.90
42979;DHT22;28616;44.746;19.678;2023-08-07T01:35:24;15.50;99.90
42979;DHT22;28616;44.746;19.678;2023-08-07T01:37:54;15.40;99.90
42979;DHT22;28616;44.746;19.678;2023-08-07T01:40:21;15.40;99.90
42979;DHT22;28616;44.746;19.678;2023-08-07T01:42:47;15.40;99.90
42979;DHT22;28616;44.746;19.678;2023-08-07T01:45:14;15.40;99.90
42979;DHT22;28616;44.746;19.678;2023-08-07T01:47:40;15.40;99.90
42979;DHT22;28616;44.746;19.678;2023-08-07T01:50:06;15.50;99.90
42979;DHT22;28616;44.746;19.678;2023-08-07T01:52:32;15.40;99.90
42979;DHT22;28616;44.746;19.678;2023-08-07T01:54:58;15.50;99.90
42979;DHT22;28616;44.746;19.678;2023-08-07T01:57:24;15.50;99.90
42979;DHT22;28616;44.746;19.678;2023-08-07T01:59:51;15.50;99.90
42979;DHT22;28616;44.746;19.678;2023-08-07T02:02:17;15.50;99.90
42979;DHT22;28616;44.746;19.678;2023-08-07T02:04:43;15.50;99.90
42979;DHT22;28616;44.746;19.678;2023-08-07T02:07:08;15.60;99.90
42979;DHT22;28616;44.746;19.678;2023-08-07T02:09:34;15.60;99.90
42979;DHT22;28616;44.746;19.678;2023-08-07T02:12:00;15.60;99.90
42979;DHT22;28616;44.746;19.678;2023-08-07T02:14:27;15.60;99.90
42979;DHT22;28616;44.746;19.678;2023-08-07T02:16:52;15.60;99.90
42979;DHT22;28616;44.746;19.678;2023-08-07T02:19:18;15.60;99.90
42979;DHT22;28616;44.746;19.678;2023-08-07T02:21:44;15.70;99.90
42979;DHT22;28616;44.746;19.678;2023-08-07T02:24:10;15.70;99.90
42979;DHT22;28616;44.746;19.678;2023-08-07T02:26:35;15.70;99.90
42979;DHT22;28616;44.746;19.678;2023-08-07T02:29:01;15.70;99.90
42979;DHT22;28616;44.746;19.678;2023-08-07T02:31:28;15.70;99.90
42979;DHT22;28616;44.746;19.678;2023-08-07T02:33:54;15.70;99.90
42979;DHT22;28616;44.746;19.678;2023-08-07T02:36:19;15.70;99.90
42979;DHT22;28616;44.746;19.678;2023-08-07T02:38:45;15.70;99.90
42979;DHT22;28616;44.746;19.678;2023-08-07T02:41:11;15.70;99.90
42979;DHT22;28616;44.746;19.678;2023-08-07T02:43:37;15.70;99.90
42979;DHT22;28616;44.746;19.678;2023-08-07T02:46:02;15.70;99.90
42979;DHT22;28616;44.746;19.678;2023-08-07T02:48:28;15.70;99.90
42979;DHT22;28616;44.746;19.678;2023-08-07T02:50:54;15.70;99.90
42979;DHT22;28616;44.746;19.678;2023-08-07T02:53:19;15.70;99.90
42979;DHT22;28616;44.746;19.678;2023-08-07T02:55:45;15.60;99.90
42979;DHT22;28616;44.746;19.678;2023-08-07T02:58:11;15.60;99.90
42979;DHT22;28616;44.746;19.678;2023-08-07T03:00:37;15.60;99.90
42979;DHT22;28616;44.746;19.678;2023-08-07T03:03:03;15.60;99.90
42979;DHT22;28616;44.746;19.678;2023-08-07T03:05:29;15.60;99.90
42979;DHT22;28616;44.746;19.678;2023-08-07T03:07:54;15.60;99.90
42979;DHT22;28616;44.746;19.678;2023-08-07T03:10:20;15.70;99.90
42979;DHT22;28616;44.746;19.678;2023-08-07T03:12:46;15.60;99.90
42979;DHT22;28616;44.746;19.678;2023-08-07T03:15:12;15.70;99.90
42979;DHT22;28616;44.746;19.678;2023-08-07T03:17:37;15.70;99.90
42979;DHT22;28616;44.746;19.678;2023-08-07T03:20:04;15.70;99.90
42979;DHT22;28616;44.746;19.678;2023-08-07T03:22:30;15.70;99.90
42979;DHT22;28616;44.746;19.678;2023-08-07T03:24:55;15.60;99.90
42979;DHT22;28616;44.746;19.678;2023-08-07T03:27:21;15.60;99.90
42979;DHT22;28616;44.746;19.678;2023-08-07T03:29:47;15.60;99.90
42979;DHT22;28616;44.746;19.678;2023-08-07T03:32:13;15.60;99.90
42979;DHT22;28616;44.746;19.678;2023-08-07T03:34:38;15.60;99.90
42979;DHT22;28616;44.746;19.678;2023-08-07T03:37:04;15.60;99.90
42979;DHT22;28616;44.746;19.678;2023-08-07T03:39:30;15.60;99.90
42979;DHT22;28616;44.746;19.678;2023-08-07T03:41:56;15.60;99.90
42979;DHT22;28616;44.746;19.678;2023-08-07T03:44:21;15.50;99.90
42979;DHT22;28616;44.746;19.678;2023-08-07T03:46:47;15.50;99.90
42979;DHT22;28616;44.746;19.678;2023-08-07T03:49:13;15.50;99.90
42979;DHT22;28616;44.746;19.678;2023-08-07T03:51:39;15.50;99.90
42979;DHT22;28616;44.746;19.678;2023-08-07T03:54:05;15.50;99.90
42979;DHT22;28616;44.746;19.678;2023-08-07T03:56:31;15.50;99.90
42979;DHT22;28616;44.746;19.678;2023-08-07T03:59:05;15.50;99.90
42979;DHT22;28616;44.746;19.678;2023-08-07T04:01:31;15.50;99.90
42979;DHT22;28616;44.746;19.678;2023-08-07T04:03:56;15.50;99.90
42979;DHT22;28616;44.746;19.678;2023-08-07T04:06:22;15.50;99.90
42979;DHT22;28616;44.746;19.678;2023-08-07T04:08:48;15.40;99.90
42979;DHT22;28616;44.746;19.678;2023-08-07T04:11:14;15.40;99.90
42979;DHT22;28616;44.746;19.678;2023-08-07T04:13:40;15.40;99.90
42979;DHT22;28616;44.746;19.678;2023-08-07T04:16:05;15.40;99.90
42979;DHT22;28616;44.746;19.678;2023-08-07T04:18:32;15.50;99.90
42979;DHT22;28616;44.746;19.678;2023-08-07T04:20:58;15.50;99.90
42979;DHT22;28616;44.746;19.678;2023-08-07T04:23:24;15.50;99.90
42979;DHT22;28616;44.746;19.678;2023-08-07T04:25:51;15.60;99.90
42979;DHT22;28616;44.746;19.678;2023-08-07T04:28:17;15.60;99.90
42979;DHT22;28616;44.746;19.678;2023-08-07T04:30:44;15.60;99.90
42979;DHT22;28616;44.746;19.678;2023-08-07T04:33:10;15.70;99.90
42979;DHT22;28616;44.746;19.678;2023-08-07T04:35:36;15.70;99.90
42979;DHT22;28616;44.746;19.678;2023-08-07T04:38:02;15.70;99.90
42979;DHT22;28616;44.746;19.678;2023-08-07T04:40:29;15.80;99.90
42979;DHT22;28616;44.746;19.678;2023-08-07T04:42:55;15.80;99.90
42979;DHT22;28616;44.746;19.678;2023-08-07T04:45:21;15.80;99.90
42979;DHT22;28616;44.746;19.678;2023-08-07T04:47:47;15.80;99.90
42979;DHT22;28616;44.746;19.678;2023-08-07T04:50:13;15.90;99.90
42979;DHT22;28616;44.746;19.678;2023-08-07T04:52:38;15.90;99.90
42979;DHT22;28616;44.746;19.678;2023-08-07T04:55:05;16.00;99.90
42979;DHT22;28616;44.746;19.678;2023-08-07T04:57:30;16.00;99.90
42979;DHT22;28616;44.746;19.678;2023-08-07T04:59:56;16.00;99.90
42979;DHT22;28616;44.746;19.678;2023-08-07T05:02:22;16.10;99.90
42979;DHT22;28616;44.746;19.678;2023-08-07T05:04:48;16.10;99.90
42979;DHT22;28616;44.746;19.678;2023-08-07T05:07:14;16.20;99.90
42979;DHT22;28616;44.746;19.678;2023-08-07T05:09:40;16.30;99.90
42979;DHT22;28616;44.746;19.678;2023-08-07T05:12:06;16.30;99.90
42979;DHT22;28616;44.746;19.678;2023-08-07T05:14:32;16.40;99.90
42979;DHT22;28616;44.746;19.678;2023-08-07T05:16:58;16.40;99.90
42979;DHT22;28616;44.746;19.678;2023-08-07T05:19:25;16.50;99.90
42979;DHT22;28616;44.746;19.678;2023-08-07T05:21:51;16.60;99.90
42979;DHT22;28616;44.746;19.678;2023-08-07T05:24:18;16.70;99.90
42979;DHT22;28616;44.746;19.678;2023-08-07T05:26:44;16.80;99.90
42979;DHT22;28616;44.746;19.678;2023-08-07T05:29:09;16.90;99.90
42979;DHT22;28616;44.746;19.678;2023-08-07T05:31:35;17.00;99.90
42979;DHT22;28616;44.746;19.678;2023-08-07T05:34:01;17.10;99.90
42979;DHT22;28616;44.746;19.678;2023-08-07T05:36:27;17.20;99.90
42979;DHT22;28616;44.746;19.678;2023-08-07T05:38:55;17.30;99.90
42979;DHT22;28616;44.746;19.678;2023-08-07T05:41:21;17.40;99.90
42979;DHT22;28616;44.746;19.678;2023-08-07T05:43:46;17.50;99.90
42979;DHT22;28616;44.746;19.678;2023-08-07T05:46:12;17.60;99.90
42979;DHT22;28616;44.746;19.678;2023-08-07T05:48:38;17.80;99.90
42979;DHT22;28616;44.746;19.678;2023-08-07T05:51:04;17.90;99.90
42979;DHT22;28616;44.746;19.678;2023-08-07T05:53:29;17.90;99.90
42979;DHT22;28616;44.746;19.678;2023-08-07T05:55:56;18.00;99.90
42979;DHT22;28616;44.746;19.678;2023-08-07T05:58:22;18.10;99.90
42979;DHT22;28616;44.746;19.678;2023-08-07T06:00:47;18.10;99.90
42979;DHT22;28616;44.746;19.678;2023-08-07T06:03:13;18.20;99.90
42979;DHT22;28616;44.746;19.678;2023-08-07T06:05:39;18.30;99.90
42979;DHT22;28616;44.746;19.678;2023-08-07T06:08:05;18.40;99.90
42979;DHT22;28616;44.746;19.678;2023-08-07T06:10:31;18.50;99.90
42979;DHT22;28616;44.746;19.678;2023-08-07T06:12:57;18.60;99.90
42979;DHT22;28616;44.746;19.678;2023-08-07T06:15:22;18.70;99.90
42979;DHT22;28616;44.746;19.678;2023-08-07T06:17:48;18.80;99.90
42979;DHT22;28616;44.746;19.678;2023-08-07T06:20:16;18.90;99.90
42979;DHT22;28616;44.746;19.678;2023-08-07T06:22:42;19.00;99.90
42979;DHT22;28616;44.746;19.678;2023-08-07T06:25:08;19.10;99.90
42979;DHT22;28616;44.746;19.678;2023-08-07T06:27:34;19.00;99.90
42979;DHT22;28616;44.746;19.678;2023-08-07T06:30:00;19.20;99.90
42979;DHT22;28616;44.746;19.678;2023-08-07T06:32:27;19.30;99.90
42979;DHT22;28616;44.746;19.678;2023-08-07T06:34:53;19.30;99.90
42979;DHT22;28616;44.746;19.678;2023-08-07T06:37:19;19.20;99.90
42979;DHT22;28616;44.746;19.678;2023-08-07T06:39:45;19.20;99.90
42979;DHT22;28616;44.746;19.678;2023-08-07T06:42:12;19.30;99.90
42979;DHT22;28616;44.746;19.678;2023-08-07T06:44:37;19.40;99.90
42979;DHT22;28616;44.746;19.678;2023-08-07T06:47:04;19.50;99.90
42979;DHT22;28616;44.746;19.678;2023-08-07T06:49:29;19.50;99.90
42979;DHT22;28616;44.746;19.678;2023-08-07T06:51:57;19.70;99.90
42979;DHT22;28616;44.746;19.678;2023-08-07T06:54:23;19.80;99.90
42979;DHT22;28616;44.746;19.678;2023-08-07T06:56:49;20.00;99.90
42979;DHT22;28616;44.746;19.678;2023-08-07T06:59:15;20.10;99.90
42979;DHT22;28616;44.746;19.678;2023-08-07T07:01:40;20.10;99.90
42979;DHT22;28616;44.746;19.678;2023-08-07T07:04:06;20.30;99.90
42979;DHT22;28616;44.746;19.678;2023-08-07T07:06:33;20.40;99.90
42979;DHT22;28616;44.746;19.678;2023-08-07T07:11:25;20.50;99.90
42979;DHT22;28616;44.746;19.678;2023-08-07T07:13:51;20.70;99.90
42979;DHT22;28616;44.746;19.678;2023-08-07T07:16:20;20.70;99.90
42979;DHT22;28616;44.746;19.678;2023-08-07T07:18:49;20.90;99.90
42979;DHT22;28616;44.746;19.678;2023-08-07T07:23:41;21.00;99.90
42979;DHT22;28616;44.746;19.678;2023-08-07T07:26:07;21.10;99.90
42979;DHT22;28616;44.746;19.678;2023-08-07T07:28:32;21.10;99.90
42979;DHT22;28616;44.746;19.678;2023-08-07T07:30:58;21.30;99.90
42979;DHT22;28616;44.746;19.678;2023-08-07T17:44:36;19.70;99.90
42979;DHT22;28616;44.746;19.678;2023-08-07T17:47:02;19.50;99.90
42979;DHT22;28616;44.746;19.678;2023-08-07T17:49:28;19.40;99.90
42979;DHT22;28616;44.746;19.678;2023-08-07T17:51:59;19.40;99.90
42979;DHT22;28616;44.746;19.678;2023-08-07T17:54:25;19.40;99.90
42979;DHT22;28616;44.746;19.678;2023-08-07T17:56:51;19.40;99.90
42979;DHT22;28616;44.746;19.678;2023-08-07T17:59:16;19.40;99.90
42979;DHT22;28616;44.746;19.678;2023-08-07T18:01:42;19.40;99.90
42979;DHT22;28616;44.746;19.678;2023-08-07T18:04:08;19.40;99.90
42979;DHT22;28616;44.746;19.678;2023-08-07T18:06:34;19.40;99.90
42979;DHT22;28616;44.746;19.678;2023-08-07T18:09:00;19.30;99.90
42979;DHT22;28616;44.746;19.678;2023-08-07T18:11:26;19.30;99.90
42979;DHT22;28616;44.746;19.678;2023-08-07T18:13:52;19.30;99.90
42979;DHT22;28616;44.746;19.678;2023-08-07T18:16:17;19.30;99.90
42979;DHT22;28616;44.746;19.678;2023-08-07T18:18:43;19.30;99.90
42979;DHT22;28616;44.746;19.678;2023-08-07T18:21:09;19.30;99.90
42979;DHT22;28616;44.746;19.678;2023-08-07T18:23:35;19.20;99.90
42979;DHT22;28616;44.746;19.678;2023-08-07T18:26:01;19.10;99.90
42979;DHT22;28616;44.746;19.678;2023-08-07T18:28:27;19.10;99.90
42979;DHT22;28616;44.746;19.678;2023-08-07T18:30:53;19.10;99.90
42979;DHT22;28616;44.746;19.678;2023-08-07T18:33:18;19.00;99.90
42979;DHT22;28616;44.746;19.678;2023-08-07T18:35:44;19.00;99.90
42979;DHT22;28616;44.746;19.678;2023-08-07T18:38:10;19.00;99.90
42979;DHT22;28616;44.746;19.678;2023-08-07T18:40:36;19.10;99.90
42979;DHT22;28616;44.746;19.678;2023-08-07T18:43:03;19.10;99.90
42979;DHT22;28616;44.746;19.678;2023-08-07T18:45:29;19.10;99.90
42979;DHT22;28616;44.746;19.678;2023-08-07T18:47:55;19.10;99.90
42979;DHT22;28616;44.746;19.678;2023-08-07T18:50:21;19.10;99.90
42979;DHT22;28616;44.746;19.678;2023-08-07T18:52:47;19.10;99.90
42979;DHT22;28616;44.746;19.678;2023-08-07T18:55:13;19.10;99.90
42979;DHT22;28616;44.746;19.678;2023-08-07T18:57:38;19.00;99.90
42979;DHT22;28616;44.746;19.678;2023-08-07T19:00:06;19.00;99.90
42979;DHT22;28616;44.746;19.678;2023-08-07T19:02:34;19.00;99.90
42979;DHT22;28616;44.746;19.678;2023-08-07T19:05:00;18.90;99.90
42979;DHT22;28616;44.746;19.678;2023-08-07T19:07:26;18.90;99.90
42979;DHT22;28616;44.746;19.678;2023-08-07T19:09:51;18.80;99.90
42979;DHT22;28616;44.746;19.678;2023-08-07T19:12:17;18.60;99.90
42979;DHT22;28616;44.746;19.678;2023-08-07T19:14:43;18.60;99.90
42979;DHT22;28616;44.746;19.678;2023-08-07T19:17:09;18.60;99.90
42979;DHT22;28616;44.746;19.678;2023-08-07T19:19:34;18.50;99.90
42979;DHT22;28616;44.746;19.678;2023-08-07T19:22:00;18.50;99.90
42979;DHT22;28616;44.746;19.678;2023-08-07T19:24:27;18.50;99.90
42979;DHT22;28616;44.746;19.678;2023-08-07T19:26:53;18.40;99.90
42979;DHT22;28616;44.746;19.678;2023-08-07T19:29:19;18.20;99.90
42979;DHT22;28616;44.746;19.678;2023-08-07T19:31:44;18.20;99.90
42979;DHT22;28616;44.746;19.678;2023-08-07T19:34:10;18.20;99.90
42979;DHT22;28616;44.746;19.678;2023-08-07T19:36:37;18.10;99.90
42979;DHT22;28616;44.746;19.678;2023-08-07T19:39:03;18.00;99.90
42979;DHT22;28616;44.746;19.678;2023-08-07T19:41:30;18.00;99.90
42979;DHT22;28616;44.746;19.678;2023-08-07T19:43:58;17.90;99.90
42979;DHT22;28616;44.746;19.678;2023-08-07T19:46:23;18.00;99.90
42979;DHT22;28616;44.746;19.678;2023-08-07T19:48:49;17.90;99.90
42979;DHT22;28616;44.746;19.678;2023-08-07T19:51:15;17.90;99.90
42979;DHT22;28616;44.746;19.678;2023-08-07T19:53:43;17.80;99.90
42979;DHT22;28616;44.746;19.678;2023-08-07T19:56:08;17.80;99.90
42979;DHT22;28616;44.746;19.678;2023-08-07T19:58:34;17.70;99.90
42979;DHT22;28616;44.746;19.678;2023-08-07T20:01:00;17.70;99.90
42979;DHT22;28616;44.746;19.678;2023-08-07T20:03:26;17.70;99.90
42979;DHT22;28616;44.746;19.678;2023-08-07T20:05:52;17.60;99.90
42979;DHT22;28616;44.746;19.678;2023-08-07T20:08:18;17.70;99.90
42979;DHT22;28616;44.746;19.678;2023-08-07T20:10:43;17.60;99.90
42979;DHT22;28616;44.746;19.678;2023-08-07T20:13:09;17.60;99.90
42979;DHT22;28616;44.746;19.678;2023-08-07T20:15:35;17.50;99.90
42979;DHT22;28616;44.746;19.678;2023-08-07T20:18:02;17.50;99.90
42979;DHT22;28616;44.746;19.678;2023-08-07T20:20:28;17.50;99.90
42979;DHT22;28616;44.746;19.678;2023-08-07T20:22:53;17.40;99.90
42979;DHT22;28616;44.746;19.678;2023-08-07T20:25:19;17.40;99.90
42979;DHT22;28616;44.746;19.678;2023-08-07T20:27:45;17.40;99.90
42979;DHT22;28616;44.746;19.678;2023-08-07T20:30:11;17.40;99.90
42979;DHT22;28616;44.746;19.678;2023-08-07T20:32:37;17.40;99.90
42979;DHT22;28616;44.746;19.678;2023-08-07T20:35:03;17.40;99.90
42979;DHT22;28616;44.746;19.678;2023-08-07T20:37:30;17.40;99.90
42979;DHT22;28616;44.746;19.678;2023-08-07T20:39:56;17.40;99.90
42979;DHT22;28616;44.746;19.678;2023-08-07T20:42:21;17.40;99.90
42979;DHT22;28616;44.746;19.678;2023-08-07T20:44:47;17.30;99.90
42979;DHT22;28616;44.746;19.678;2023-08-07T20:47:13;17.40;99.90
42979;DHT22;28616;44.746;19.678;2023-08-07T20:49:39;17.40;99.90
42979;DHT22;28616;44.746;19.678;2023-08-07T20:52:05;17.40;99.90
42979;DHT22;28616;44.746;19.678;2023-08-07T20:54:31;17.40;99.90
42979;DHT22;28616;44.746;19.678;2023-08-07T20:56:56;17.30;99.90
42979;DHT22;28616;44.746;19.678;2023-08-07T20:59:22;17.30;99.90
42979;DHT22;28616;44.746;19.678;2023-08-07T21:01:48;17.20;99.90
42979;DHT22;28616;44.746;19.678;2023-08-07T21:04:14;17.20;99.90
42979;DHT22;28616;44.746;19.678;2023-08-07T21:06:40;17.10;99.90
42979;DHT22;28616;44.746;19.678;2023-08-07T21:09:06;17.00;99.90
42979;DHT22;28616;44.746;19.678;2023-08-07T21:11:32;17.00;99.90
42979;DHT22;28616;44.746;19.678;2023-08-07T21:13:58;17.00;99.90
42979;DHT22;28616;44.746;19.678;2023-08-07T21:16:24;17.00;99.90
42979;DHT22;28616;44.746;19.678;2023-08-07T21:18:51;17.00;99.90
42979;DHT22;28616;44.746;19.678;2023-08-07T21:21:17;17.00;99.90
42979;DHT22;28616;44.746;19.678;2023-08-07T21:23:43;17.10;99.90
42979;DHT22;28616;44.746;19.678;2023-08-07T21:26:09;17.10;99.90
42979;DHT22;28616;44.746;19.678;2023-08-07T21:28:35;17.10;99.90
42979;DHT22;28616;44.746;19.678;2023-08-07T21:31:00;17.10;99.90
42979;DHT22;28616;44.746;19.678;2023-08-07T21:33:26;17.10;99.90
42979;DHT22;28616;44.746;19.678;2023-08-07T21:35:54;17.10;99.90
42979;DHT22;28616;44.746;19.678;2023-08-07T21:38:20;17.10;99.90
42979;DHT22;28616;44.746;19.678;2023-08-07T21:40:45;17.10;99.90
42979;DHT22;28616;44.746;19.678;2023-08-07T21:43:11;17.20;99.90
42979;DHT22;28616;44.746;19.678;2023-08-07T21:45:37;17.10;99.90
42979;DHT22;28616;44.746;19.678;2023-08-07T21:48:03;17.10;99.90
42979;DHT22;28616;44.746;19.678;2023-08-07T21:50:29;16.90;99.90
42979;DHT22;28616;44.746;19.678;2023-08-07T21:52:54;16.90;99.90
42979;DHT22;28616;44.746;19.678;2023-08-07T21:55:20;16.80;99.90
42979;DHT22;28616;44.746;19.678;2023-08-07T21:57:46;16.80;99.90
42979;DHT22;28616;44.746;19.678;2023-08-07T22:00:13;16.80;99.90
42979;DHT22;28616;44.746;19.678;2023-08-07T22:02:42;16.70;99.90
42979;DHT22;28616;44.746;19.678;2023-08-07T22:05:09;16.60;99.90
42979;DHT22;28616;44.746;19.678;2023-08-07T22:07:35;16.60;99.90
42979;DHT22;28616;44.746;19.678;2023-08-07T22:10:06;16.50;99.90
42979;DHT22;28616;44.746;19.678;2023-08-07T22:12:33;16.60;99.90
42979;DHT22;28616;44.746;19.678;2023-08-07T22:15:00;16.50;99.90
42979;DHT22;28616;44.746;19.678;2023-08-07T22:17:26;16.50;99.90
42979;DHT22;28616;44.746;19.678;2023-08-07T22:19:52;16.40;99.90
42979;DHT22;28616;44.746;19.678;2023-08-07T22:22:17;16.40;99.90
42979;DHT22;28616;44.746;19.678;2023-08-07T22:24:43;16.30;99.90
42979;DHT22;28616;44.746;19.678;2023-08-07T22:27:10;16.30;99.90
42979;DHT22;28616;44.746;19.678;2023-08-07T22:29:36;16.20;99.90
42979;DHT22;28616;44.746;19.678;2023-08-07T22:32:02;16.20;99.90
42979;DHT22;28616;44.746;19.678;2023-08-07T22:34:28;16.20;99.90
42979;DHT22;28616;44.746;19.678;2023-08-07T22:36:54;16.10;99.90
42979;DHT22;28616;44.746;19.678;2023-08-07T22:39:20;16.10;99.90
42979;DHT22;28616;44.746;19.678;2023-08-07T22:41:45;16.00;99.90
42979;DHT22;28616;44.746;19.678;2023-08-07T22:44:11;16.10;99.90
42979;DHT22;28616;44.746;19.678;2023-08-07T22:46:37;16.10;99.90
42979;DHT22;28616;44.746;19.678;2023-08-07T22:49:03;16.10;99.90
42979;DHT22;28616;44.746;19.678;2023-08-07T22:51:28;16.20;99.90
42979;DHT22;28616;44.746;19.678;2023-08-07T22:53:54;16.20;99.90
42979;DHT22;28616;44.746;19.678;2023-08-07T22:56:20;16.20;99.90
42979;DHT22;28616;44.746;19.678;2023-08-07T22:58:47;16.30;99.90
42979;DHT22;28616;44.746;19.678;2023-08-07T23:01:13;16.30;99.90
42979;DHT22;28616;44.746;19.678;2023-08-07T23:03:39;16.20;99.90
42979;DHT22;28616;44.746;19.678;2023-08-07T23:06:07;16.30;99.90
42979;DHT22;28616;44.746;19.678;2023-08-07T23:08:35;16.30;99.90
42979;DHT22;28616;44.746;19.678;2023-08-07T23:11:01;16.40;99.90
42979;DHT22;28616;44.746;19.678;2023-08-07T23:13:26;16.40;99.90
42979;DHT22;28616;44.746;19.678;2023-08-07T23:15:52;16.40;99.90
42979;DHT22;28616;44.746;19.678;2023-08-07T23:18:18;16.50;99.90
42979;DHT22;28616;44.746;19.678;2023-08-07T23:20:44;16.40;99.90
42979;DHT22;28616;44.746;19.678;2023-08-07T23:23:10;16.30;99.90
42979;DHT22;28616;44.746;19.678;2023-08-07T23:25:36;16.40;99.90
42979;DHT22;28616;44.746;19.678;2023-08-07T23:28:02;16.40;99.90
42979;DHT22;28616;44.746;19.678;2023-08-07T23:30:29;16.30;99.90
42979;DHT22;28616;44.746;19.678;2023-08-07T23:32:54;16.30;99.90
42979;DHT22;28616;44.746;19.678;2023-08-07T23:35:20;16.30;99.90
42979;DHT22;28616;44.746;19.678;2023-08-07T23:37:46;16.30;99.90
42979;DHT22;28616;44.746;19.678;2023-08-07T23:40:11;16.30;99.90
42979;DHT22;28616;44.746;19.678;2023-08-07T23:42:37;16.30;99.90
42979;DHT22;28616;44.746;19.678;2023-08-07T23:45:04;16.30;99.90
42979;DHT22;28616;44.746;19.678;2023-08-07T23:47:30;16.40;99.90
42979;DHT22;28616;44.746;19.678;2023-08-07T23:49:56;16.50;99.90
42979;DHT22;28616;44.746;19.678;2023-08-07T23:52:22;16.50;99.90
42979;DHT22;28616;44.746;19.678;2023-08-07T23:54:48;16.50;99.90
42979;DHT22;28616;44.746;19.678;2023-08-07T23:57:13;16.40;99.90
42979;DHT22;28616;44.746;19.678;2023-08-07T23:59:39;16.40;99.90
